WXForecasting.com
Aberdeen, SD - Weather Station Data
Daily Summary for August 12, 2017 Units:  Both    English   Metric
« Previous Day
Next Day »
Daily Weekly Monthly Yearly Custom
  High: Low: Average:
Temperature: 77.9 °F /  25.5 °C 58.1 °F /  14.5 °C 66.3 °F /  19.1 °C
Dew Point: 67.0 °F /  19.4 °C 53.0 °F /  11.7 °C 59.9 °F /  15.5 °C
Humidity: 89 % 59 % 80 %
Wind Speed: 12.0 mph /  19.3 km/h - 2 mph /  3.2 km/h
Wind Gust: 15.0 mph /  24.1 km/h - -
Wind:- - SE
Pressure: 30.07 in /  1018.2 hPa 29.91 in /  1012.8 hPa -
Precipitation: 0.09 in /  2.29 mm    
Historical Graphs
 
 
Tabular Data for August 12, 2017
Time Temperature Dew Point Pressure Wind Wind Speed Wind Gust Humidity Rainfall Rate (Hourly) solar Conditions
00:06 63.0 °F /  17.2 °C 56.0 °F /  13.3 °C 30.05 in /  1017.5 hPa Calm     79 % 0.00 in /  0 mm 0 W/m2
00:22 62.7 °F /  17.1 °C 56.0 °F /  13.3 °C 30.06 in /  1017.8 hPa Calm   1.0 mph /  1.6 km/h 79 % 0.00 in /  0 mm 0 W/m2
00:36 62.2 °F /  16.8 °C 56.0 °F /  13.3 °C 30.06 in /  1017.8 hPa Calm     80 % 0.00 in /  0 mm 0 W/m2
00:51 61.7 °F /  16.5 °C 56.0 °F /  13.3 °C 30.06 in /  1017.8 hPa Calm     80 % 0.00 in /  0 mm 0 W/m2
01:06 61.3 °F /  16.3 °C 56.0 °F /  13.3 °C 30.06 in /  1017.8 hPa Calm   1.0 mph /  1.6 km/h 82 % 0.00 in /  0 mm 0 W/m2
01:21 61.4 °F /  16.3 °C 56.0 °F /  13.3 °C 30.07 in /  1018.2 hPa South 1.0 mph /  1.6 km/h 1.0 mph /  1.6 km/h 82 % 0.00 in /  0 mm 0 W/m2
01:36 61.4 °F /  16.3 °C 56.0 °F /  13.3 °C 30.06 in /  1017.8 hPa Calm   1.0 mph /  1.6 km/h 82 % 0.00 in /  0 mm 0 W/m2
01:51 61.0 °F /  16.1 °C 55.0 °F /  12.8 °C 30.06 in /  1017.8 hPa Calm   1.0 mph /  1.6 km/h 81 % 0.00 in /  0 mm 0 W/m2
02:06 60.8 °F /  16 °C 55.0 °F /  12.8 °C 30.07 in /  1018.2 hPa Calm     82 % 0.00 in /  0 mm 0 W/m2
02:21 60.6 °F /  15.9 °C 55.0 °F /  12.8 °C 30.06 in /  1017.8 hPa Calm     83 % 0.00 in /  0 mm 0 W/m2
02:36 60.4 °F /  15.8 °C 55.0 °F /  12.8 °C 30.06 in /  1017.8 hPa Calm   3.0 mph /  4.8 km/h 83 % 0.00 in /  0 mm 0 W/m2
02:51 60.2 °F /  15.7 °C 55.0 °F /  12.8 °C 30.06 in /  1017.8 hPa Calm   3.0 mph /  4.8 km/h 82 % 0.00 in /  0 mm 0 W/m2
03:06 59.9 °F /  15.5 °C 54.0 °F /  12.2 °C 30.06 in /  1017.8 hPa Calm   1.0 mph /  1.6 km/h 82 % 0.00 in /  0 mm 0 W/m2
03:21 59.7 °F /  15.4 °C 54.0 °F /  12.2 °C 30.06 in /  1017.8 hPa Calm     82 % 0.00 in /  0 mm 0 W/m2
03:36 59.5 °F /  15.3 °C 54.0 °F /  12.2 °C 30.06 in /  1017.8 hPa Calm     82 % 0.00 in /  0 mm 0 W/m2
03:51 59.0 °F /  15 °C 54.0 °F /  12.2 °C 30.06 in /  1017.8 hPa Calm   2.0 mph /  3.2 km/h 83 % 0.00 in /  0 mm 0 W/m2
04:06 58.7 °F /  14.8 °C 54.0 °F /  12.2 °C 30.06 in /  1017.8 hPa Calm   2.0 mph /  3.2 km/h 83 % 0.00 in /  0 mm 0 W/m2
04:21 58.4 °F /  14.7 °C 53.0 °F /  11.7 °C 30.06 in /  1017.8 hPa Calm   1.0 mph /  1.6 km/h 83 % 0.00 in /  0 mm 0 W/m2
04:36 58.1 °F /  14.5 °C 53.0 °F /  11.7 °C 30.06 in /  1017.8 hPa Calm     84 % 0.00 in /  0 mm 0 W/m2
04:51 58.4 °F /  14.7 °C 54.0 °F /  12.2 °C 30.06 in /  1017.8 hPa Calm   1.0 mph /  1.6 km/h 85 % 0.00 in /  0 mm 0 W/m2
05:06 58.7 °F /  14.8 °C 54.0 °F /  12.2 °C 30.06 in /  1017.8 hPa Calm   2.0 mph /  3.2 km/h 84 % 0.00 in /  0 mm 0 W/m2
05:21 58.9 °F /  14.9 °C 54.0 °F /  12.2 °C 30.06 in /  1017.8 hPa Calm   1.0 mph /  1.6 km/h 85 % 0.00 in /  0 mm 0 W/m2
05:37 59.4 °F /  15.2 °C 55.0 °F /  12.8 °C 30.06 in /  1017.8 hPa Calm   3.0 mph /  4.8 km/h 85 % 0.00 in /  0 mm 0 W/m2
05:51 59.5 °F /  15.3 °C 55.0 °F /  12.8 °C 30.06 in /  1017.8 hPa SSE 1.0 mph /  1.6 km/h 1.0 mph /  1.6 km/h 85 % 0.00 in /  0 mm 0 W/m2
06:06 59.5 °F /  15.3 °C 55.0 °F /  12.8 °C 30.07 in /  1018.2 hPa Calm   1.0 mph /  1.6 km/h 85 % 0.00 in /  0 mm 0 W/m2
06:21 59.6 °F /  15.3 °C 55.0 °F /  12.8 °C 30.06 in /  1017.8 hPa Calm   1.0 mph /  1.6 km/h 85 % 0.00 in /  0 mm 0 W/m2
06:36 59.4 °F /  15.2 °C 55.0 °F /  12.8 °C 30.06 in /  1017.8 hPa SSE 1.0 mph /  1.6 km/h 3.0 mph /  4.8 km/h 86 % 0.00 in /  0 mm 19 W/m2
06:51 59.4 °F /  15.2 °C 55.0 °F /  12.8 °C 30.06 in /  1017.8 hPa SSE 2.0 mph /  3.2 km/h 3.0 mph /  4.8 km/h 86 % 0.00 in /  0 mm 14 W/m2
07:06 59.6 °F /  15.3 °C 56.0 °F /  13.3 °C 30.06 in /  1017.8 hPa Calm   3.0 mph /  4.8 km/h 86 % 0.00 in /  0 mm 16 W/m2
07:21 59.7 °F /  15.4 °C 56.0 °F /  13.3 °C 30.06 in /  1017.8 hPa Calm   2.0 mph /  3.2 km/h 86 % 0.00 in /  0 mm 35 W/m2
07:37 60.0 °F /  15.6 °C 56.0 °F /  13.3 °C 30.06 in /  1017.8 hPa Calm   1.0 mph /  1.6 km/h 86 % 0.00 in /  0 mm 95 W/m2
07:52 60.9 °F /  16.1 °C 57.0 °F /  13.9 °C 30.05 in /  1017.5 hPa Calm   3.0 mph /  4.8 km/h 87 % 0.00 in /  0 mm 139 W/m2
08:07 63.2 °F /  17.3 °C 59.0 °F /  15 °C 30.05 in /  1017.5 hPa SE 2.0 mph /  3.2 km/h 8.0 mph /  12.9 km/h 86 % 0.00 in /  0 mm 243 W/m2
08:22 64.5 °F /  18.1 °C 60.0 °F /  15.6 °C 30.05 in /  1017.5 hPa Calm   4.0 mph /  6.4 km/h 84 % 0.00 in /  0 mm 97 W/m2
08:37 64.6 °F /  18.1 °C 60.0 °F /  15.6 °C 30.05 in /  1017.5 hPa Calm   3.0 mph /  4.8 km/h 84 % 0.00 in /  0 mm 74 W/m2
08:52 64.9 °F /  18.3 °C 60.0 °F /  15.6 °C 30.05 in /  1017.5 hPa Calm   2.0 mph /  3.2 km/h 84 % 0.00 in /  0 mm 121 W/m2
09:07 66.4 °F /  19.1 °C 61.0 °F /  16.1 °C 30.05 in /  1017.5 hPa ESE 1.0 mph /  1.6 km/h 3.0 mph /  4.8 km/h 83 % 0.00 in /  0 mm 163 W/m2
09:22 67.5 °F /  19.7 °C 62.0 °F /  16.7 °C 30.05 in /  1017.5 hPa ESE 5.0 mph /  8 km/h 6.0 mph /  9.7 km/h 82 % 0.00 in /  0 mm 151 W/m2
09:37 68.6 °F /  20.3 °C 62.0 °F /  16.7 °C 30.05 in /  1017.5 hPa SE 1.0 mph /  1.6 km/h 8.0 mph /  12.9 km/h 79 % 0.00 in /  0 mm 206 W/m2
09:52 69.2 °F /  20.7 °C 62.0 °F /  16.7 °C 30.04 in /  1017.2 hPa SE 5.0 mph /  8 km/h 7.0 mph /  11.3 km/h 78 % 0.00 in /  0 mm 234 W/m2
10:07 70.6 °F /  21.4 °C 63.0 °F /  17.2 °C 30.05 in /  1017.5 hPa SSE 4.0 mph /  6.4 km/h 7.0 mph /  11.3 km/h 76 % 0.00 in /  0 mm 276 W/m2
10:22 70.4 °F /  21.3 °C 63.0 °F /  17.2 °C 30.05 in /  1017.5 hPa Calm   8.0 mph /  12.9 km/h 77 % 0.00 in /  0 mm 281 W/m2
10:37 70.6 °F /  21.4 °C 63.0 °F /  17.2 °C 30.04 in /  1017.2 hPa Calm   8.0 mph /  12.9 km/h 77 % 0.00 in /  0 mm 183 W/m2
10:52 70.6 °F /  21.4 °C 63.0 °F /  17.2 °C 30.04 in /  1017.2 hPa SE 2.0 mph /  3.2 km/h 7.0 mph /  11.3 km/h 77 % 0.00 in /  0 mm 200 W/m2
11:07 71.7 °F /  22.1 °C 63.0 °F /  17.2 °C 30.03 in /  1016.8 hPa SE 5.0 mph /  8 km/h 8.0 mph /  12.9 km/h 75 % 0.00 in /  0 mm 274 W/m2
11:22 72.7 °F /  22.6 °C 64.0 °F /  17.8 °C 30.03 in /  1016.8 hPa East 1.0 mph /  1.6 km/h 10.0 mph /  16.1 km/h 73 % 0.00 in /  0 mm 313 W/m2
11:37 74.0 °F /  23.3 °C 63.0 °F /  17.2 °C 30.02 in /  1016.5 hPa ESE 4.0 mph /  6.4 km/h 9.0 mph /  14.5 km/h 68 % 0.00 in /  0 mm 290 W/m2
11:52 74.0 °F /  23.3 °C 62.0 °F /  16.7 °C 30.03 in /  1016.8 hPa SE 3.0 mph /  4.8 km/h 10.0 mph /  16.1 km/h 67 % 0.00 in /  0 mm 276 W/m2
12:07 74.5 °F /  23.6 °C 63.0 °F /  17.2 °C 30.03 in /  1016.8 hPa South 3.0 mph /  4.8 km/h 11.0 mph /  17.7 km/h 68 % 0.00 in /  0 mm 418 W/m2
12:22 73.9 °F /  23.3 °C 63.0 °F /  17.2 °C 30.02 in /  1016.5 hPa SE 3.0 mph /  4.8 km/h 12.0 mph /  19.3 km/h 68 % 0.00 in /  0 mm 316 W/m2
12:37 76.1 °F /  24.5 °C 64.0 °F /  17.8 °C 30.01 in /  1016.1 hPa SE 5.0 mph /  8 km/h 13.0 mph /  20.9 km/h 67 % 0.00 in /  0 mm 937 W/m2
12:53 77.8 °F /  25.4 °C 65.0 °F /  18.3 °C 30.00 in /  1015.8 hPa SE 8.0 mph /  12.9 km/h 11.0 mph /  17.7 km/h 65 % 0.00 in /  0 mm 397 W/m2
13:08 77.7 °F /  25.4 °C 65.0 °F /  18.3 °C 30.00 in /  1015.8 hPa SE 2.0 mph /  3.2 km/h 12.0 mph /  19.3 km/h 64 % 0.00 in /  0 mm 461 W/m2
13:23 77.9 °F /  25.5 °C 63.0 °F /  17.2 °C 30.00 in /  1015.8 hPa ESE 8.0 mph /  12.9 km/h 15.0 mph /  24.1 km/h 60 % 0.00 in /  0 mm 645 W/m2
13:38 77.4 °F /  25.2 °C 62.0 °F /  16.7 °C 30.00 in /  1015.8 hPa SE 1.0 mph /  1.6 km/h 12.0 mph /  19.3 km/h 59 % 0.00 in /  0 mm 225 W/m2
13:53 76.8 °F /  24.9 °C 62.0 °F /  16.7 °C 30.00 in /  1015.8 hPa SSW 2.0 mph /  3.2 km/h 8.0 mph /  12.9 km/h 61 % 0.00 in /  0 mm 172 W/m2
14:08 76.4 °F /  24.7 °C 62.0 °F /  16.7 °C 30.00 in /  1015.8 hPa SE 4.0 mph /  6.4 km/h 10.0 mph /  16.1 km/h 61 % 0.00 in /  0 mm 211 W/m2
14:23 76.3 °F /  24.6 °C 63.0 °F /  17.2 °C 29.98 in /  1015.1 hPa ESE 3.0 mph /  4.8 km/h 11.0 mph /  17.7 km/h 63 % 0.00 in /  0 mm 188 W/m2
14:38 75.6 °F /  24.2 °C 66.0 °F /  18.9 °C 29.98 in /  1015.1 hPa SE 3.0 mph /  4.8 km/h 10.0 mph /  16.1 km/h 72 % 0.00 in /  0 mm 599 W/m2
14:53 77.7 °F /  25.4 °C 67.0 °F /  19.4 °C 29.97 in /  1014.8 hPa SE 5.0 mph /  8 km/h 11.0 mph /  17.7 km/h 69 % 0.00 in /  0 mm 531 W/m2
15:08 76.1 °F /  24.5 °C 64.0 °F /  17.8 °C 29.97 in /  1014.8 hPa SSE 4.0 mph /  6.4 km/h 9.0 mph /  14.5 km/h 67 % 0.00 in /  0 mm 281 W/m2
15:23 75.9 °F /  24.4 °C 65.0 °F /  18.3 °C 29.97 in /  1014.8 hPa South 11.0 mph /  17.7 km/h 11.0 mph /  17.7 km/h 68 % 0.00 in /  0 mm 243 W/m2
15:38 75.0 °F /  23.9 °C 63.0 °F /  17.2 °C 29.96 in /  1014.4 hPa South 7.0 mph /  11.3 km/h 14.0 mph /  22.5 km/h 67 % 0.00 in /  0 mm 276 W/m2
15:53 74.7 °F /  23.7 °C 63.0 °F /  17.2 °C 29.96 in /  1014.4 hPa SSW 12.0 mph /  19.3 km/h 15.0 mph /  24.1 km/h 67 % 0.00 in /  0 mm 292 W/m2
16:08 73.6 °F /  23.1 °C 62.0 °F /  16.7 °C 29.96 in /  1014.4 hPa SW 7.0 mph /  11.3 km/h 11.0 mph /  17.7 km/h 68 % 0.00 in /  0 mm 185 W/m2
16:23 73.0 °F /  22.8 °C 63.0 °F /  17.2 °C 29.97 in /  1014.8 hPa SW 5.0 mph /  8 km/h 9.0 mph /  14.5 km/h 70 % 0.00 in /  0 mm 42 W/m2
16:38 71.6 °F /  22 °C 63.0 °F /  17.2 °C 29.98 in /  1015.1 hPa WSW 3.0 mph /  4.8 km/h 8.0 mph /  12.9 km/h 73 % 0.00 in /  0 mm 21 W/m2
16:53 70.1 °F /  21.2 °C 63.0 °F /  17.2 °C 29.98 in /  1015.1 hPa SW 1.0 mph /  1.6 km/h 5.0 mph /  8 km/h 77 % 0.02 in /  0.51 mm 11 W/m2
17:08 69.1 °F /  20.6 °C 63.0 °F /  17.2 °C 29.97 in /  1014.8 hPa SW 2.0 mph /  3.2 km/h 4.0 mph /  6.4 km/h 80 % 0.04 in /  1.02 mm 21 W/m2
17:23 68.1 °F /  20.1 °C 63.0 °F /  17.2 °C 29.95 in /  1014.1 hPa SW 2.0 mph /  3.2 km/h 4.0 mph /  6.4 km/h 83 % 0.05 in /  1.27 mm 63 W/m2
17:38 68.1 °F /  20.1 °C 64.0 °F /  17.8 °C 29.96 in /  1014.4 hPa Calm   3.0 mph /  4.8 km/h 85 % 0.05 in /  1.27 mm 86 W/m2
17:53 68.2 °F /  20.1 °C 64.0 °F /  17.8 °C 29.96 in /  1014.4 hPa Calm   1.0 mph /  1.6 km/h 85 % 0.03 in /  0.76 mm 33 W/m2
18:08 68.4 °F /  20.2 °C 64.0 °F /  17.8 °C 29.96 in /  1014.4 hPa SW 1.0 mph /  1.6 km/h 2.0 mph /  3.2 km/h 85 % 0.01 in /  0.25 mm 30 W/m2
18:23 68.4 °F /  20.2 °C 64.0 °F /  17.8 °C 29.96 in /  1014.4 hPa Calm   1.0 mph /  1.6 km/h 86 % 0.01 in /  0.25 mm 26 W/m2
18:38 68.4 °F /  20.2 °C 64.0 °F /  17.8 °C 29.96 in /  1014.4 hPa SW 1.0 mph /  1.6 km/h 4.0 mph /  6.4 km/h 86 % 0.01 in /  0.25 mm 35 W/m2
18:53 68.2 °F /  20.1 °C 64.0 °F /  17.8 °C 29.95 in /  1014.1 hPa Calm   5.0 mph /  8 km/h 87 % 0.03 in /  0.76 mm 25 W/m2
19:08 67.7 °F /  19.8 °C 64.0 °F /  17.8 °C 29.95 in /  1014.1 hPa NNE 3.0 mph /  4.8 km/h 9.0 mph /  14.5 km/h 87 % 0.04 in /  1.02 mm 46 W/m2
19:23 66.5 °F /  19.2 °C 63.0 °F /  17.2 °C 29.94 in /  1013.8 hPa NE 4.0 mph /  6.4 km/h 8.0 mph /  12.9 km/h 88 % 0.03 in /  0.76 mm 28 W/m2
19:38 65.9 °F /  18.8 °C 63.0 °F /  17.2 °C 29.95 in /  1014.1 hPa NE 5.0 mph /  8 km/h 12.0 mph /  19.3 km/h 89 % 0.03 in /  0.76 mm 18 W/m2
19:53 65.5 °F /  18.6 °C 62.0 °F /  16.7 °C 29.94 in /  1013.8 hPa NNE 4.0 mph /  6.4 km/h 12.0 mph /  19.3 km/h 89 % 0.01 in /  0.25 mm 14 W/m2
20:08 65.2 °F /  18.4 °C 62.0 °F /  16.7 °C 29.94 in /  1013.8 hPa ENE 3.0 mph /  4.8 km/h 9.0 mph /  14.5 km/h 89 % 0.00 in /  0 mm 12 W/m2
20:23 64.9 °F /  18.3 °C 62.0 °F /  16.7 °C 29.93 in /  1013.4 hPa East 4.0 mph /  6.4 km/h 13.0 mph /  20.9 km/h 89 % 0.00 in /  0 mm 5 W/m2
20:38 64.8 °F /  18.2 °C 62.0 °F /  16.7 °C 29.93 in /  1013.4 hPa NE 5.0 mph /  8 km/h 12.0 mph /  19.3 km/h 89 % 0.00 in /  0 mm 0 W/m2
20:53 64.6 °F /  18.1 °C 61.0 °F /  16.1 °C 29.93 in /  1013.4 hPa NE 10.0 mph /  16.1 km/h 12.0 mph /  19.3 km/h 89 % 0.00 in /  0 mm 0 W/m2
21:08 64.4 °F /  18 °C 61.0 °F /  16.1 °C 29.91 in /  1012.8 hPa Calm   10.0 mph /  16.1 km/h 88 % 0.00 in /  0 mm 0 W/m2
21:23 64.2 °F /  17.9 °C 61.0 °F /  16.1 °C 29.91 in /  1012.8 hPa Calm   8.0 mph /  12.9 km/h 88 % 0.00 in /  0 mm 0 W/m2
21:38 63.9 °F /  17.7 °C 60.0 °F /  15.6 °C 29.92 in /  1013.1 hPa Calm   7.0 mph /  11.3 km/h 87 % 0.00 in /  0 mm 0 W/m2
21:53 63.6 °F /  17.6 °C 60.0 °F /  15.6 °C 29.92 in /  1013.1 hPa Calm   8.0 mph /  12.9 km/h 87 % 0.00 in /  0 mm 0 W/m2
22:08 63.4 °F /  17.4 °C 60.0 °F /  15.6 °C 29.93 in /  1013.4 hPa East 2.0 mph /  3.2 km/h 6.0 mph /  9.7 km/h 88 % 0.00 in /  0 mm 0 W/m2
22:25 63.2 °F /  17.3 °C 60.0 °F /  15.6 °C 29.93 in /  1013.4 hPa ENE 3.0 mph /  4.8 km/h 5.0 mph /  8 km/h 88 % 0.00 in /  0 mm 0 W/m2
22:38 62.8 °F /  17.1 °C 59.0 °F /  15 °C 29.92 in /  1013.1 hPa ENE 3.0 mph /  4.8 km/h 5.0 mph /  8 km/h 88 % 0.00 in /  0 mm 0 W/m2
22:53 62.6 °F /  17 °C 59.0 °F /  15 °C 29.92 in /  1013.1 hPa Calm   4.0 mph /  6.4 km/h 88 % 0.00 in /  0 mm 0 W/m2
23:08 62.7 °F /  17.1 °C 59.0 °F /  15 °C 29.92 in /  1013.1 hPa ENE 2.0 mph /  3.2 km/h 5.0 mph /  8 km/h 88 % 0.00 in /  0 mm 0 W/m2
23:23 62.7 °F /  17.1 °C 59.0 °F /  15 °C 29.93 in /  1013.4 hPa ENE 2.0 mph /  3.2 km/h 5.0 mph /  8 km/h 88 % 0.00 in /  0 mm 0 W/m2
23:38 62.7 °F /  17.1 °C 60.0 °F /  15.6 °C 29.92 in /  1013.1 hPa ENE 3.0 mph /  4.8 km/h 5.0 mph /  8 km/h 89 % 0.00 in /  0 mm 0 W/m2
23:53 62.9 °F /  17.2 °C 60.0 °F /  15.6 °C 29.93 in /  1013.4 hPa Calm   5.0 mph /  8 km/h 89 % 0.00 in /  0 mm 0 W/m2
Compliments of Weather Underground - 1 mb